createdAt,value
2023-03-21T00:00:41.291Z,6.81
2023-03-21T00:03:07.645Z,6.83
2023-03-21T00:05:34.009Z,6.81
2023-03-21T00:08:01.859Z,6.83
2023-03-21T00:10:39.837Z,6.84
2023-03-21T00:13:10.286Z,6.80
2023-03-21T00:15:44.260Z,6.81
2023-03-21T00:18:17.538Z,6.83
2023-03-21T00:20:43.878Z,6.84
2023-03-21T00:23:10.233Z,6.84
2023-03-21T00:25:36.867Z,6.81
2023-03-21T00:28:08.361Z,6.81
2023-03-21T00:30:35.162Z,6.81
2023-03-21T00:33:05.872Z,6.81
2023-03-21T00:36:02.228Z,6.81
2023-03-21T00:38:24.890Z,6.81
2023-03-21T00:40:51.370Z,6.81
2023-03-21T00:43:17.756Z,6.81
2023-03-21T00:45:44.095Z,6.81
2023-03-21T00:48:10.520Z,6.84
2023-03-21T00:50:36.904Z,6.83
2023-03-21T00:53:03.241Z,6.81
2023-03-21T00:55:29.792Z,6.81
2023-03-21T00:58:01.858Z,6.79
2023-03-21T01:00:28.651Z,6.80
2023-03-21T01:03:02.743Z,6.80
2023-03-21T01:05:31.659Z,6.83
2023-03-21T01:07:57.986Z,6.80
2023-03-21T01:10:24.322Z,6.81
2023-03-21T01:12:50.661Z,6.80
2023-03-21T01:15:17.204Z,6.80
2023-03-21T01:17:43.570Z,6.80
2023-03-21T01:20:12.486Z,6.80
2023-03-21T01:22:38.820Z,6.80
2023-03-21T01:25:19.575Z,6.80
2023-03-21T01:27:48.473Z,6.83
2023-03-21T01:30:21.529Z,6.79
2023-03-21T01:32:49.494Z,6.79
2023-03-21T01:35:15.829Z,6.79
2023-03-21T01:37:42.159Z,6.79
2023-03-21T01:40:08.523Z,6.80
2023-03-21T01:42:34.871Z,6.81
2023-03-21T01:45:01.213Z,6.80
2023-03-21T01:47:27.563Z,6.80
2023-03-21T01:49:53.911Z,6.80
2023-03-21T01:52:33.496Z,6.80
2023-03-21T01:55:02.050Z,6.77
2023-03-21T01:57:35.505Z,6.79
2023-03-21T02:00:07.541Z,6.74
2023-03-21T02:02:34.097Z,6.77
2023-03-21T02:05:00.448Z,6.79
2023-03-21T02:07:26.992Z,6.77
2023-03-21T02:09:53.391Z,6.79
2023-03-21T02:12:19.986Z,6.77
2023-03-21T02:14:46.332Z,6.77
2023-03-21T02:17:12.663Z,6.77
2023-03-21T02:19:47.594Z,6.77
2023-03-21T02:22:17.467Z,6.74
2023-03-21T02:24:48.804Z,6.77
2023-03-21T02:27:17.798Z,6.73
2023-03-21T02:29:44.360Z,6.77
2023-03-21T02:32:20.314Z,6.76
2023-03-21T02:34:54.634Z,6.76
2023-03-21T02:37:23.546Z,6.76
2023-03-21T02:39:55.350Z,6.74
2023-03-21T02:42:21.953Z,6.79
2023-03-21T02:44:48.304Z,6.76
2023-03-21T02:47:14.938Z,6.76
2023-03-21T02:49:41.305Z,6.74
2023-03-21T02:52:15.614Z,6.74
2023-03-21T02:54:48.308Z,6.76
2023-03-21T02:57:15.248Z,6.74
2023-03-21T02:59:51.606Z,6.74
2023-03-21T03:02:20.080Z,6.77
2023-03-21T03:04:46.485Z,6.74
2023-03-21T03:07:13.099Z,6.76
2023-03-21T03:09:39.483Z,6.73
2023-03-21T03:12:05.852Z,6.74
2023-03-21T03:14:46.937Z,6.72
2023-03-21T03:17:18.754Z,6.76
2023-03-21T03:19:50.651Z,6.74
2023-03-21T03:22:17.679Z,6.72
2023-03-21T03:24:44.418Z,6.73
2023-03-21T03:27:10.798Z,6.72
2023-03-21T03:29:37.359Z,6.72
2023-03-21T03:32:03.805Z,6.70
2023-03-21T03:34:30.216Z,6.72
2023-03-21T03:36:56.640Z,6.72
2023-03-21T03:39:23.021Z,6.72
2023-03-21T03:42:15.420Z,6.70
2023-03-21T03:44:35.758Z,6.72
2023-03-21T03:47:02.150Z,6.74
2023-03-21T03:49:28.542Z,6.72
2023-03-21T03:51:54.932Z,6.70
2023-03-21T03:54:21.353Z,6.72
2023-03-21T03:56:47.739Z,6.69
2023-03-21T03:59:14.120Z,6.70
2023-03-21T04:01:40.502Z,6.70
2023-03-21T04:04:12.957Z,6.72
2023-03-21T04:06:39.810Z,6.72
2023-03-21T04:09:17.300Z,6.70
2023-03-21T04:11:46.187Z,6.70
2023-03-21T04:14:12.575Z,6.72
2023-03-21T04:16:38.980Z,6.72
2023-03-21T04:19:05.376Z,6.70
2023-03-21T04:21:31.726Z,6.69
2023-03-21T04:23:58.091Z,6.70
2023-03-21T04:26:24.449Z,6.67
2023-03-21T04:28:50.820Z,6.67
2023-03-21T04:31:25.434Z,6.67
2023-03-21T04:33:52.640Z,6.69
2023-03-21T04:36:19.009Z,6.69
2023-03-21T04:38:45.368Z,6.69
2023-03-21T04:41:11.950Z,6.66
2023-03-21T04:43:38.328Z,6.69
2023-03-21T04:46:04.721Z,6.67
2023-03-21T04:48:31.092Z,6.67
2023-03-21T04:50:57.696Z,6.69
2023-03-21T04:53:24.063Z,6.69
2023-03-21T04:55:54.169Z,6.66
2023-03-21T04:58:21.674Z,6.69
2023-03-21T05:00:48.063Z,6.67
2023-03-21T05:03:14.507Z,6.69
2023-03-21T05:05:41.093Z,6.67
2023-03-21T05:08:07.460Z,6.67
2023-03-21T05:10:33.836Z,6.69
2023-03-21T05:13:00.212Z,6.66
2023-03-21T05:15:26.579Z,6.69
2023-03-21T05:17:53.156Z,6.64
2023-03-21T05:20:19.545Z,6.64
2023-03-21T05:22:45.895Z,6.66
2023-03-21T05:25:12.453Z,6.69
2023-03-21T05:27:38.836Z,6.66
2023-03-21T05:30:05.751Z,6.64
2023-03-21T05:32:32.123Z,6.64
2023-03-21T05:34:58.697Z,6.64
2023-03-21T05:37:25.051Z,6.66
2023-03-21T05:39:51.430Z,6.63
2023-03-21T05:42:17.787Z,6.66
2023-03-21T05:44:44.084Z,6.63
2023-03-21T05:47:10.457Z,6.64
2023-03-21T05:49:36.810Z,6.63
2023-03-21T05:52:03.169Z,6.66
2023-03-21T05:54:29.549Z,6.62
2023-03-21T05:56:55.934Z,6.66
2023-03-21T05:59:22.322Z,6.60
2023-03-21T06:01:48.673Z,6.62
2023-03-21T06:04:15.108Z,6.64
2023-03-21T06:06:41.518Z,6.62
2023-03-21T06:09:08.125Z,6.62
2023-03-21T06:11:34.521Z,6.63
2023-03-21T06:14:00.898Z,6.62
2023-03-21T06:16:27.294Z,6.60
2023-03-21T06:18:53.684Z,6.60
2023-03-21T06:21:20.096Z,6.60
2023-03-21T06:23:46.456Z,6.60
2023-03-21T06:26:12.860Z,6.58
2023-03-21T06:28:39.230Z,6.62
2023-03-21T06:31:05.847Z,6.62
2023-03-21T06:33:32.215Z,6.58
2023-03-21T06:35:58.632Z,6.60
2023-03-21T06:38:25.505Z,6.60
2023-03-21T06:40:51.868Z,6.60
2023-03-21T06:43:18.247Z,6.60
2023-03-21T06:45:44.718Z,6.60
2023-03-21T06:48:11.105Z,6.58
2023-03-21T06:50:37.497Z,6.62
2023-03-21T06:53:03.874Z,6.63
2023-03-21T06:55:30.232Z,6.58
2023-03-21T06:57:56.623Z,6.57
2023-03-21T07:00:24.636Z,6.58
2023-03-21T07:02:51.418Z,6.58
2023-03-21T07:05:17.801Z,6.58
2023-03-21T07:07:44.145Z,6.54
2023-03-21T07:10:10.528Z,6.56
2023-03-21T07:12:36.907Z,6.57
2023-03-21T07:15:04.533Z,6.57
2023-03-21T07:17:30.916Z,6.58
2023-03-21T07:19:57.266Z,6.57
2023-03-21T07:22:23.636Z,6.57
2023-03-21T07:25:02.436Z,6.57
2023-03-21T07:27:31.001Z,6.57
2023-03-21T07:29:57.582Z,6.57
2023-03-21T07:32:23.967Z,6.62
2023-03-21T07:34:50.341Z,6.56
2023-03-21T07:37:16.728Z,6.57
2023-03-21T07:39:43.103Z,6.58
2023-03-21T07:44:36.739Z,6.58
2023-03-21T07:47:03.093Z,6.57
2023-03-21T07:49:29.446Z,6.58
2023-03-21T07:51:55.823Z,6.56
2023-03-21T07:54:22.212Z,6.56
2023-03-21T07:56:48.602Z,6.57
2023-03-21T07:59:14.995Z,6.56
2023-03-21T08:01:41.406Z,6.57
2023-03-21T08:04:10.820Z,6.57
2023-03-21T08:06:37.173Z,6.56
2023-03-21T08:09:04.326Z,6.54
2023-03-21T08:11:30.687Z,6.54
2023-03-21T08:13:57.534Z,6.56
2023-03-21T08:16:23.922Z,6.54
2023-03-21T08:18:50.435Z,6.56
2023-03-21T08:21:16.807Z,6.56
2023-03-21T08:23:43.187Z,6.57
2023-03-21T08:26:09.564Z,6.57
2023-03-21T08:28:35.941Z,6.56
2023-03-21T08:31:02.351Z,6.56
2023-03-21T08:33:28.737Z,6.57
2023-03-21T08:35:55.600Z,6.57
2023-03-21T08:38:22.480Z,6.57
2023-03-21T08:40:48.863Z,6.57
2023-03-21T08:43:15.215Z,6.58
2023-03-21T08:45:41.586Z,6.57
2023-03-21T08:48:08.008Z,6.56
2023-03-21T08:50:34.426Z,6.58
2023-03-21T08:53:00.786Z,6.57
2023-03-21T08:55:29.296Z,6.58
2023-03-21T08:57:55.649Z,6.60
2023-03-21T09:00:25.279Z,6.58
2023-03-21T09:02:51.675Z,6.60
2023-03-21T09:05:18.056Z,6.60
2023-03-21T09:07:44.405Z,6.60
2023-03-21T09:10:25.673Z,6.58
2023-03-21T09:12:52.146Z,6.58
2023-03-21T09:15:18.560Z,6.58
2023-03-21T09:17:45.155Z,6.58
2023-03-21T09:20:11.522Z,6.60
2023-03-21T09:22:37.961Z,6.56
2023-03-21T09:25:04.306Z,6.58
2023-03-21T09:27:30.661Z,6.57
2023-03-21T09:29:57.029Z,6.60
2023-03-21T09:32:23.379Z,6.58
2023-03-21T09:34:49.745Z,6.57
2023-03-21T09:37:16.361Z,6.58
2023-03-21T09:39:42.730Z,6.58
2023-03-21T09:42:09.531Z,6.57
2023-03-21T09:44:35.895Z,6.56
2023-03-21T09:47:02.275Z,6.57
2023-03-21T09:49:28.698Z,6.56
2023-03-21T09:51:55.072Z,6.60
2023-03-21T09:54:21.466Z,6.57
2023-03-21T09:56:47.843Z,6.62
2023-03-21T09:59:14.209Z,6.60
2023-03-21T10:01:40.786Z,6.62
2023-03-21T10:04:07.739Z,6.60
2023-03-21T10:06:34.400Z,6.60
2023-03-21T10:09:00.783Z,6.60
2023-03-21T10:11:27.154Z,6.60
2023-03-21T10:13:53.573Z,6.60
2023-03-21T10:16:19.971Z,6.60
2023-03-21T10:18:46.485Z,6.63
2023-03-21T10:21:12.912Z,6.60
2023-03-21T10:23:39.352Z,6.64
2023-03-21T10:26:05.720Z,6.62
2023-03-21T10:31:18.478Z,6.63
2023-03-21T10:33:44.846Z,6.63
2023-03-21T10:36:11.279Z,6.63
2023-03-21T10:38:37.697Z,6.63
2023-03-21T10:41:04.678Z,6.66
2023-03-21T10:43:31.041Z,6.66
2023-03-21T10:45:57.592Z,6.64
2023-03-21T10:48:24.144Z,6.66
2023-03-21T10:50:50.871Z,6.63
2023-03-21T10:53:17.249Z,6.66
2023-03-21T10:55:43.618Z,6.66
2023-03-21T10:58:09.979Z,6.66
2023-03-21T11:00:36.354Z,6.67
2023-03-21T11:03:02.728Z,6.66
2023-03-21T11:05:29.082Z,6.66
2023-03-21T11:07:55.452Z,6.67
2023-03-21T11:10:28.554Z,6.69
2023-03-21T11:12:55.469Z,6.69
2023-03-21T11:15:21.813Z,6.67
2023-03-21T11:17:48.177Z,6.72
2023-03-21T11:20:14.558Z,6.69
2023-03-21T11:22:40.950Z,6.70
2023-03-21T11:25:07.309Z,6.67
2023-03-21T11:27:33.684Z,6.69
2023-03-21T11:30:00.053Z,6.69
2023-03-21T11:32:26.687Z,6.72
2023-03-21T11:34:53.078Z,6.67
2023-03-21T11:37:19.431Z,6.70
2023-03-21T11:39:45.818Z,6.72
2023-03-21T11:42:12.186Z,6.72
2023-03-21T11:44:38.556Z,6.72
2023-03-21T11:47:04.935Z,6.73
2023-03-21T11:49:31.340Z,6.72
2023-03-21T11:51:57.702Z,6.73
2023-03-21T11:54:24.055Z,6.72
2023-03-21T11:56:50.418Z,6.72
2023-03-21T11:59:16.787Z,6.74
2023-03-21T12:01:43.183Z,6.72
2023-03-21T12:04:09.850Z,6.76
2023-03-21T12:06:36.234Z,6.73
2023-03-21T12:09:02.615Z,6.72
2023-03-21T12:11:28.996Z,6.72
2023-03-21T12:13:55.397Z,6.74
2023-03-21T12:16:21.834Z,6.74
2023-03-21T12:18:48.240Z,6.76
2023-03-21T12:21:14.824Z,6.74
2023-03-21T12:23:41.169Z,6.76
2023-03-21T12:26:07.537Z,6.77
2023-03-21T12:28:33.937Z,6.77
2023-03-21T12:31:00.329Z,6.76
2023-03-21T12:33:26.705Z,6.79
2023-03-21T12:35:53.088Z,6.77
2023-03-21T12:38:19.478Z,6.77
2023-03-21T12:40:45.884Z,6.77
2023-03-21T12:43:12.275Z,6.79
2023-03-21T12:45:46.643Z,6.80
2023-03-21T12:48:14.119Z,6.83
2023-03-21T12:50:40.494Z,6.79
2023-03-21T12:53:06.843Z,6.77
2023-03-21T12:55:33.221Z,6.79
2023-03-21T12:57:59.598Z,6.80
2023-03-21T13:00:25.990Z,6.79
2023-03-21T13:02:52.414Z,6.80
2023-03-21T13:05:18.786Z,6.83
2023-03-21T13:07:45.151Z,6.80
2023-03-21T13:10:11.649Z,6.81
2023-03-21T13:12:38.123Z,6.80
2023-03-21T13:15:06.068Z,6.80
2023-03-21T13:17:34.347Z,6.84
2023-03-21T13:20:00.746Z,6.83
2023-03-21T13:22:27.121Z,6.84
2023-03-21T13:24:53.503Z,6.83
2023-03-21T13:27:19.860Z,6.83
2023-03-21T13:29:46.239Z,6.83
2023-03-21T13:32:12.832Z,6.84
2023-03-21T13:34:39.261Z,6.83
2023-03-21T13:37:05.644Z,6.84
2023-03-21T13:39:32.005Z,6.84
2023-03-21T13:41:58.389Z,6.85
2023-03-21T13:44:24.765Z,6.87
2023-03-21T13:46:54.411Z,6.87
2023-03-21T13:49:21.119Z,6.85
2023-03-21T13:51:47.482Z,6.85
2023-03-21T13:54:13.826Z,6.85
2023-03-21T13:56:40.161Z,6.88
2023-03-21T13:59:06.517Z,6.87
2023-03-21T14:01:32.887Z,6.84
2023-03-21T14:03:59.287Z,6.87
2023-03-21T14:06:25.787Z,6.83
2023-03-21T14:08:52.192Z,6.85
2023-03-21T14:11:18.554Z,6.88
2023-03-21T14:13:51.344Z,6.87
2023-03-21T14:16:18.251Z,6.84
2023-03-21T14:19:00.065Z,6.88
2023-03-21T14:21:26.460Z,6.87
2023-03-21T14:23:52.868Z,6.85
2023-03-21T14:26:19.214Z,6.87
2023-03-21T14:28:45.573Z,6.88
2023-03-21T14:31:11.956Z,6.85
2023-03-21T14:33:38.356Z,6.88
2023-03-21T14:36:04.800Z,6.88
2023-03-21T14:38:31.184Z,6.90
2023-03-21T14:40:57.715Z,6.87
2023-03-21T14:43:24.122Z,6.87
2023-03-21T14:45:50.560Z,6.88
2023-03-21T14:48:17.075Z,6.88
2023-03-21T14:50:43.482Z,6.90
2023-03-21T14:53:09.826Z,6.88
2023-03-21T14:55:36.401Z,6.90
2023-03-21T14:58:03.835Z,6.90
2023-03-21T15:00:33.802Z,6.91
2023-03-21T15:03:00.235Z,6.90
2023-03-21T15:05:26.607Z,6.90
2023-03-21T15:07:52.975Z,6.88
2023-03-21T15:10:19.349Z,6.90
2023-03-21T15:12:45.701Z,6.88
2023-03-21T15:15:12.050Z,6.90
2023-03-21T15:17:38.412Z,6.90
2023-03-21T15:20:04.809Z,6.87
2023-03-21T15:22:31.175Z,6.88
2023-03-21T15:24:57.541Z,6.90
2023-03-21T15:27:23.927Z,6.88
2023-03-21T15:29:50.273Z,6.93
2023-03-21T15:32:16.881Z,6.90
2023-03-21T15:34:43.233Z,6.93
2023-03-21T15:37:09.601Z,6.91
2023-03-21T15:39:35.986Z,6.90
2023-03-21T15:42:02.351Z,6.90
2023-03-21T15:44:28.749Z,6.90
2023-03-21T15:46:55.194Z,6.93
2023-03-21T15:49:21.645Z,6.93
2023-03-21T15:51:48.008Z,6.93
2023-03-21T15:54:16.157Z,6.91
2023-03-21T15:56:42.699Z,6.93
2023-03-21T15:59:09.113Z,6.93
2023-03-21T16:01:35.514Z,6.90
2023-03-21T16:04:01.892Z,6.94
2023-03-21T16:06:28.273Z,6.95
2023-03-21T16:08:54.627Z,6.93
2023-03-21T16:11:20.998Z,6.93
2023-03-21T16:13:47.341Z,6.93
2023-03-21T16:16:13.743Z,6.93
2023-03-21T16:18:40.133Z,6.94
2023-03-21T16:21:06.736Z,6.93
2023-03-21T16:23:33.114Z,6.94
2023-03-21T16:25:59.458Z,6.93
2023-03-21T16:28:25.796Z,6.91
2023-03-21T16:30:52.155Z,6.94
2023-03-21T16:33:18.505Z,6.93
2023-03-21T16:35:44.898Z,6.94
2023-03-21T16:38:11.658Z,6.93
2023-03-21T16:40:38.359Z,6.93
2023-03-21T16:43:05.145Z,6.93
2023-03-21T16:45:31.543Z,6.93
2023-03-21T16:47:57.938Z,6.94
2023-03-21T16:50:24.321Z,6.95
2023-03-21T16:52:50.688Z,6.93
2023-03-21T16:55:17.266Z,6.93
2023-03-21T16:57:43.642Z,6.94
2023-03-21T17:00:10.004Z,6.93
2023-03-21T17:02:36.370Z,6.95
2023-03-21T17:05:04.809Z,6.95
2023-03-21T17:07:31.272Z,6.94
2023-03-21T17:09:57.643Z,6.94
2023-03-21T17:12:24.008Z,6.93
2023-03-21T17:14:50.361Z,6.93
2023-03-21T17:17:16.966Z,6.94
2023-03-21T17:19:43.345Z,6.93
2023-03-21T17:22:10.879Z,6.94
2023-03-21T17:24:38.320Z,6.93
2023-03-21T17:27:04.709Z,6.93
2023-03-21T17:29:31.170Z,6.91
2023-03-21T17:31:57.586Z,6.93
2023-03-21T17:34:24.201Z,6.93
2023-03-21T17:36:50.552Z,6.93
2023-03-21T17:39:16.914Z,6.91
2023-03-21T17:41:43.286Z,6.94
2023-03-21T17:44:09.657Z,6.94
2023-03-21T17:46:36.306Z,6.94
2023-03-21T17:49:02.716Z,6.91
2023-03-21T17:51:29.102Z,6.94
2023-03-21T17:53:55.497Z,6.94
2023-03-21T17:56:21.884Z,6.94
2023-03-21T17:58:48.248Z,6.91
2023-03-21T18:01:14.609Z,6.91
2023-03-21T18:03:41.234Z,6.91
2023-03-21T18:06:07.587Z,6.90
2023-03-21T18:08:33.972Z,6.93
2023-03-21T18:11:00.350Z,6.94
2023-03-21T18:13:26.713Z,6.93
2023-03-21T18:15:53.166Z,6.94
2023-03-21T18:18:19.588Z,6.93
2023-03-21T18:20:52.205Z,6.91
2023-03-21T18:23:19.939Z,6.93
2023-03-21T18:25:47.022Z,6.91
2023-03-21T18:28:13.937Z,6.93
2023-03-21T18:33:26.848Z,6.93
2023-03-21T18:35:58.772Z,6.94
2023-03-21T18:38:25.857Z,6.91
2023-03-21T18:40:52.214Z,6.95
2023-03-21T18:46:05.717Z,6.93
2023-03-21T18:48:34.097Z,6.94
2023-03-21T18:51:00.748Z,6.93
2023-03-21T18:53:27.121Z,6.93
2023-03-21T18:55:53.516Z,6.91
2023-03-21T18:58:20.056Z,6.93
2023-03-21T19:00:46.498Z,6.91
2023-03-21T19:03:22.133Z,6.93
2023-03-21T19:05:59.210Z,6.93
2023-03-21T19:08:25.586Z,6.91
2023-03-21T19:10:51.949Z,6.91
2023-03-21T19:13:18.344Z,6.91
2023-03-21T19:15:45.805Z,6.94
2023-03-21T19:20:58.641Z,6.93
2023-03-21T19:23:25.012Z,6.93
2023-03-21T19:25:51.360Z,6.94
2023-03-21T19:28:17.966Z,6.93
2023-03-21T19:30:49.890Z,6.91
2023-03-21T19:33:17.298Z,6.91
2023-03-21T19:35:43.664Z,6.93
2023-03-21T19:38:10.060Z,6.93
2023-03-21T19:40:36.738Z,6.93
2023-03-21T19:43:21.526Z,6.90
2023-03-21T19:45:49.636Z,6.91
2023-03-21T19:48:16.063Z,6.94
2023-03-21T19:51:07.864Z,6.91
2023-03-21T19:53:28.773Z,6.91
2023-03-21T19:55:55.120Z,6.91
2023-03-21T19:58:22.782Z,6.93
2023-03-21T20:00:49.333Z,6.93
2023-03-21T20:03:15.796Z,6.91
2023-03-21T20:05:42.246Z,6.94
2023-03-21T20:08:10.900Z,6.93
2023-03-21T20:10:38.009Z,6.93
2023-03-21T20:13:04.592Z,6.91
2023-03-21T20:15:31.061Z,6.93
2023-03-21T20:17:57.436Z,6.93
2023-03-21T20:20:23.804Z,6.90
2023-03-21T20:23:08.189Z,6.94
2023-03-21T20:25:34.800Z,6.93
2023-03-21T20:28:15.090Z,6.91
2023-03-21T20:30:43.137Z,6.91
2023-03-21T20:33:09.534Z,6.90
2023-03-21T20:36:28.566Z,6.93
2023-03-21T20:38:22.230Z,6.91
2023-03-21T20:40:48.624Z,6.90
2023-03-21T20:44:06.498Z,6.93
2023-03-21T20:46:01.397Z,6.93
2023-03-21T20:48:27.793Z,6.94
2023-03-21T20:50:58.927Z,6.93
2023-03-21T20:53:27.541Z,6.91
2023-03-21T20:55:53.889Z,6.90
2023-03-21T20:58:50.082Z,6.91
2023-03-21T21:01:06.890Z,6.91
2023-03-21T21:03:33.302Z,6.93
2023-03-21T21:05:59.670Z,6.93
2023-03-21T21:08:26.043Z,6.93
2023-03-21T21:11:39.335Z,6.90
2023-03-21T21:13:38.997Z,6.91
2023-03-21T21:16:05.447Z,6.94
2023-03-21T21:18:31.827Z,6.93
2023-03-21T21:20:58.170Z,6.91
2023-03-21T21:23:25.570Z,6.91
2023-03-21T21:25:51.998Z,6.93
2023-03-21T21:28:18.348Z,6.93
2023-03-21T21:30:44.716Z,6.91
2023-03-21T21:33:11.095Z,6.93
2023-03-21T21:35:37.710Z,6.94
2023-03-21T21:38:04.095Z,6.90
2023-03-21T21:40:30.479Z,6.93
2023-03-21T21:42:56.873Z,6.93
2023-03-21T21:45:23.225Z,6.94
2023-03-21T21:47:49.854Z,6.91
2023-03-21T21:50:16.275Z,6.93
2023-03-21T21:52:42.633Z,6.91
2023-03-21T21:55:08.988Z,6.91
2023-03-21T21:57:35.325Z,6.91
2023-03-21T22:00:01.675Z,6.93
2023-03-21T22:02:28.027Z,6.91
2023-03-21T22:04:54.614Z,6.91
2023-03-21T22:07:20.992Z,6.93
2023-03-21T22:09:47.352Z,6.93
2023-03-21T22:12:13.751Z,6.93
2023-03-21T22:14:40.125Z,6.91
2023-03-21T22:17:06.516Z,6.91
2023-03-21T22:19:32.895Z,6.93
2023-03-21T22:21:59.504Z,6.94
2023-03-21T22:24:25.955Z,6.93
2023-03-21T22:26:52.341Z,6.93
2023-03-21T22:29:18.803Z,6.93
2023-03-21T22:31:45.249Z,6.93
2023-03-21T22:34:11.653Z,6.90
2023-03-21T22:36:38.079Z,6.91
2023-03-21T22:39:04.436Z,6.91
2023-03-21T22:41:30.811Z,6.91
2023-03-21T22:43:57.245Z,6.90
2023-03-21T22:46:23.651Z,6.93
2023-03-21T22:48:50.272Z,6.93
2023-03-21T22:51:16.635Z,6.91
2023-03-21T22:53:42.984Z,6.93
2023-03-21T22:56:09.370Z,6.93
2023-03-21T22:58:35.715Z,6.91
2023-03-21T23:01:02.118Z,6.91
2023-03-21T23:03:28.504Z,6.93
2023-03-21T23:05:56.712Z,6.91
2023-03-21T23:08:23.113Z,6.90
2023-03-21T23:10:49.472Z,6.90
2023-03-21T23:13:15.853Z,6.91
2023-03-21T23:15:42.265Z,6.93
2023-03-21T23:18:08.660Z,6.91
2023-03-21T23:20:35.064Z,6.90
2023-03-21T23:23:01.654Z,6.93
2023-03-21T23:25:27.998Z,6.91
2023-03-21T23:27:54.347Z,6.91
2023-03-21T23:30:20.724Z,6.88
2023-03-21T23:32:47.116Z,6.88
2023-03-21T23:35:13.700Z,6.91
2023-03-21T23:37:40.042Z,6.93
2023-03-21T23:40:06.511Z,6.91
2023-03-21T23:42:32.900Z,6.90
2023-03-21T23:44:59.279Z,6.93
2023-03-21T23:47:25.676Z,6.91
2023-03-21T23:49:52.040Z,6.90
2023-03-21T23:52:18.623Z,6.93
2023-03-21T23:54:44.993Z,6.91
2023-03-21T23:57:11.557Z,6.91
2023-03-21T23:59:37.973Z,6.90
